createdAt,value
2023-01-15T00:02:50.186Z,7.38
2023-01-15T00:07:52.297Z,6.82
2023-01-15T00:12:53.927Z,6.45
2023-01-15T00:17:55.615Z,5.53
2023-01-15T00:22:57.348Z,6.15
2023-01-15T00:28:01.560Z,5.72
2023-01-15T00:33:03.346Z,6.22
2023-01-15T00:38:04.998Z,5.70
2023-01-15T00:43:06.753Z,5.32
2023-01-15T00:48:09.193Z,5.82
2023-01-15T00:53:10.818Z,5.40
2023-01-15T00:58:12.440Z,4.85
2023-01-15T01:03:14.113Z,5.10
2023-01-15T01:08:16.640Z,5.25
2023-01-15T01:13:18.287Z,5.53
2023-01-15T01:18:20.036Z,5.47
2023-01-15T01:23:24.445Z,5.72
2023-01-15T01:28:26.105Z,5.70
2023-01-15T01:33:27.932Z,5.80
2023-01-15T01:38:29.601Z,5.35
2023-01-15T01:43:31.769Z,5.55
2023-01-15T01:48:34.535Z,5.38
2023-01-15T01:53:36.200Z,5.25
2023-01-15T01:58:38.932Z,5.75
2023-01-15T02:03:40.694Z,5.20
2023-01-15T02:08:43.053Z,5.38
2023-01-15T02:13:57.405Z,4.60
2023-01-15T02:19:36.133Z,5.20
2023-01-15T02:24:49.844Z,4.88
2023-01-15T02:30:04.547Z,4.20
2023-01-15T02:35:13.088Z,4.90
2023-01-15T02:40:16.207Z,4.60
2023-01-15T02:45:24.460Z,4.82
2023-01-15T02:50:32.011Z,4.70
2023-01-15T02:55:43.843Z,4.35
2023-01-15T03:00:49.815Z,5.13
2023-01-15T03:06:00.499Z,5.13
2023-01-15T03:11:10.004Z,4.45
2023-01-15T03:16:38.508Z,4.88
2023-01-15T03:21:59.957Z,4.25
2023-01-15T03:27:02.088Z,4.53
2023-01-15T03:32:04.989Z,4.45
2023-01-15T03:37:06.856Z,4.30
2023-01-15T03:42:20.323Z,4.28
2023-01-15T03:47:42.547Z,4.43
2023-01-15T03:53:02.834Z,4.30
2023-01-15T03:58:16.248Z,5.20
2023-01-15T04:03:20.641Z,4.28
2023-01-15T04:08:23.411Z,4.43
2023-01-15T04:13:25.668Z,4.63
2023-01-15T04:18:27.833Z,5.00
2023-01-15T04:23:29.494Z,4.38
2023-01-15T04:28:31.201Z,4.68
2023-01-15T04:33:32.916Z,4.80
2023-01-15T04:38:34.997Z,5.20
2023-01-15T04:43:55.300Z,4.60
2023-01-15T04:48:56.970Z,4.85
2023-01-15T04:53:59.416Z,5.57
2023-01-15T04:59:02.765Z,5.20
2023-01-15T05:04:05.051Z,5.15
2023-01-15T05:09:07.237Z,5.38
2023-01-15T05:14:09.406Z,4.60
2023-01-15T05:19:11.165Z,5.07
2023-01-15T05:24:17.720Z,4.72
2023-01-15T05:29:19.430Z,4.60
2023-01-15T05:34:21.156Z,4.60
2023-01-15T05:39:22.825Z,4.53
2023-01-15T05:44:27.154Z,5.05
2023-01-15T05:49:32.855Z,5.00
2023-01-15T05:54:35.919Z,5.70
2023-01-15T05:59:43.436Z,5.15
2023-01-15T06:04:50.075Z,4.60
2023-01-15T06:09:52.240Z,4.90
2023-01-15T06:14:53.925Z,4.60
2023-01-15T06:19:55.622Z,3.97
2023-01-15T06:24:57.293Z,5.15
2023-01-15T06:29:59.146Z,5.18
2023-01-15T06:35:00.779Z,5.80
2023-01-15T06:40:02.478Z,6.28
2023-01-15T06:45:26.047Z,5.95
2023-01-15T06:50:28.337Z,6.60
2023-01-15T06:55:30.078Z,5.95
2023-01-15T07:00:31.919Z,5.40
2023-01-15T07:05:33.676Z,7.18
2023-01-15T07:10:36.304Z,8.02
2023-01-15T07:15:39.819Z,6.32
2023-01-15T07:20:42.133Z,6.13
2023-01-15T07:25:43.804Z,5.50
2023-01-15T07:30:45.986Z,5.68
2023-01-15T07:35:47.744Z,5.70
2023-01-15T07:41:09.763Z,5.20
2023-01-15T07:46:30.326Z,6.10
2023-01-15T07:51:31.992Z,5.82
2023-01-15T07:56:33.724Z,6.40
2023-01-15T08:01:35.454Z,5.60
2023-01-15T08:06:37.650Z,6.25
2023-01-15T08:11:58.178Z,5.75
2023-01-15T08:16:59.880Z,5.15
2023-01-15T08:22:01.953Z,5.57
2023-01-15T08:27:04.187Z,5.38
2023-01-15T08:32:06.106Z,4.70
2023-01-15T08:37:07.930Z,4.55
2023-01-15T08:42:09.765Z,4.75
2023-01-15T08:47:11.441Z,5.30
2023-01-15T08:52:13.289Z,4.78
2023-01-15T08:57:14.948Z,4.15
2023-01-15T09:02:17.807Z,4.18
2023-01-15T09:07:19.615Z,5.28
2023-01-15T09:12:24.901Z,6.82
2023-01-15T09:17:26.669Z,7.45
2023-01-15T09:22:31.238Z,8.30
2023-01-15T09:27:34.465Z,6.43
2023-01-15T09:32:36.113Z,7.82
2023-01-15T09:37:37.856Z,8.30
2023-01-15T09:42:46.216Z,7.45
2023-01-15T09:48:32.305Z,7.00
2023-01-15T09:53:46.221Z,5.30
2023-01-15T09:58:48.067Z,4.90
2023-01-15T10:04:31.362Z,4.35
2023-01-15T10:09:37.781Z,3.83
2023-01-15T10:15:02.405Z,5.25
2023-01-15T10:20:04.380Z,4.32
2023-01-15T10:25:14.985Z,4.30
2023-01-15T10:30:22.710Z,3.92
2023-01-15T10:35:27.166Z,4.40
2023-01-15T10:40:58.100Z,4.00
2023-01-15T10:46:11.889Z,4.45
2023-01-15T10:51:28.902Z,3.70
2023-01-15T10:56:49.091Z,4.00
2023-01-15T11:01:54.275Z,3.22
2023-01-15T11:06:56.128Z,3.10
2023-01-15T11:12:20.528Z,2.90
2023-01-15T11:17:43.292Z,3.08
2023-01-15T11:22:45.343Z,3.42
2023-01-15T11:27:49.896Z,3.75
2023-01-15T11:32:57.009Z,3.35
2023-01-15T11:38:13.629Z,3.40
2023-01-15T11:49:06.476Z,3.30
2023-01-15T11:54:12.500Z,3.20
2023-01-15T11:59:19.921Z,3.20
2023-01-15T12:04:34.783Z,3.22
2023-01-15T12:09:45.451Z,3.08
2023-01-15T12:15:06.944Z,3.40
2023-01-15T12:20:37.975Z,3.28
2023-01-15T12:26:17.836Z,3.42
2023-01-15T12:32:07.401Z,3.92
2023-01-15T12:37:21.229Z,3.92
2023-01-15T12:42:44.076Z,3.60
2023-01-15T12:48:07.069Z,4.18
2023-01-15T12:53:11.822Z,3.80
2023-01-15T12:58:36.520Z,4.20
2023-01-15T13:03:51.580Z,3.92
2023-01-15T13:09:03.423Z,4.00
2023-01-15T13:14:16.693Z,4.20
2023-01-15T13:19:27.554Z,4.32
2023-01-15T13:24:56.470Z,3.67
2023-01-15T13:30:19.813Z,3.88
2023-01-15T13:35:36.242Z,4.28
2023-01-15T13:40:50.717Z,4.20
2023-01-15T13:45:52.662Z,4.50
2023-01-15T13:50:58.993Z,4.55
2023-01-15T13:56:06.212Z,4.45
2023-01-15T14:01:23.135Z,4.70
2023-01-15T14:06:45.801Z,4.70
2023-01-15T14:12:08.135Z,5.63
2023-01-15T14:17:31.676Z,5.70
2023-01-15T14:22:55.531Z,6.07
2023-01-15T14:28:02.578Z,6.15
2023-01-15T14:33:19.491Z,8.10
2023-01-15T14:38:27.093Z,7.15
2023-01-15T14:43:33.531Z,5.38
2023-01-15T14:48:39.428Z,5.13
2023-01-15T14:53:48.903Z,5.13
2023-01-15T14:59:08.610Z,5.05
2023-01-15T15:04:40.827Z,5.47
2023-01-15T15:09:46.712Z,7.30
2023-01-15T15:15:27.241Z,6.73
2023-01-15T15:20:33.378Z,5.50
2023-01-15T15:25:39.588Z,5.85
2023-01-15T15:30:45.590Z,4.97
2023-01-15T15:35:52.492Z,5.17
2023-01-15T15:40:59.240Z,5.35
2023-01-15T15:51:49.127Z,4.75
2023-01-15T15:56:58.126Z,5.35
2023-01-15T16:02:36.486Z,6.35
2023-01-15T16:07:38.583Z,5.38
2023-01-15T16:13:09.981Z,5.15
2023-01-15T16:18:41.250Z,5.10
2023-01-15T16:23:46.603Z,4.93
2023-01-15T16:28:56.100Z,5.45
2023-01-15T16:33:59.897Z,6.20
2023-01-15T16:39:03.276Z,5.03
2023-01-15T16:44:07.794Z,5.40
2023-01-15T16:49:22.514Z,10.02
2023-01-15T16:54:31.169Z,11.05
2023-01-15T16:59:34.461Z,8.88
2023-01-15T17:04:41.476Z,8.70
2023-01-15T17:10:01.548Z,11.15
2023-01-15T17:15:15.997Z,11.20
2023-01-15T17:20:20.565Z,10.38
2023-01-15T17:25:24.340Z,9.60
2023-01-15T17:30:35.177Z,7.85
2023-01-15T17:35:41.653Z,7.38
2023-01-15T17:40:44.632Z,6.35
2023-01-15T17:45:47.627Z,5.93
2023-01-15T17:50:51.471Z,6.20
2023-01-15T17:56:12.172Z,5.05
2023-01-15T18:01:40.113Z,5.10
2023-01-15T18:06:48.790Z,4.90
2023-01-15T18:11:54.049Z,5.32
2023-01-15T18:16:56.652Z,6.20
2023-01-15T18:22:01.178Z,5.80
2023-01-15T18:27:04.458Z,5.13
2023-01-15T18:32:10.052Z,5.97
2023-01-15T18:37:13.778Z,5.80
2023-01-15T18:42:16.402Z,6.28
2023-01-15T18:47:18.928Z,7.10
2023-01-15T18:52:40.497Z,7.57
2023-01-15T18:57:43.826Z,7.65
2023-01-15T19:02:47.594Z,9.57
2023-01-15T19:07:50.395Z,12.00
2023-01-15T19:12:52.548Z,11.57
2023-01-15T19:18:13.747Z,12.05
2023-01-15T19:23:17.286Z,9.80
2023-01-15T19:28:21.881Z,9.98
2023-01-15T19:33:24.978Z,9.57
2023-01-15T19:38:29.604Z,8.15
2023-01-15T19:43:50.525Z,7.22
2023-01-15T19:49:11.379Z,7.03
2023-01-15T19:54:13.912Z,5.57
2023-01-15T19:59:16.594Z,5.93
2023-01-15T20:04:19.231Z,5.18
2023-01-15T20:09:22.057Z,5.65
2023-01-15T20:14:24.660Z,5.63
2023-01-15T20:19:27.308Z,9.20
2023-01-15T20:24:30.033Z,9.30
2023-01-15T20:29:32.697Z,9.98
2023-01-15T20:34:41.939Z,9.10
2023-01-15T20:39:44.770Z,6.07
2023-01-15T20:44:56.695Z,7.47
2023-01-15T20:49:59.081Z,8.98
2023-01-15T20:55:02.373Z,9.77
2023-01-15T21:00:06.175Z,11.07
2023-01-15T21:05:08.685Z,10.48
2023-01-15T21:10:14.317Z,9.35
2023-01-15T21:15:16.654Z,8.80
2023-01-15T21:20:18.414Z,7.80
2023-01-15T21:25:20.459Z,8.70
2023-01-15T21:30:26.046Z,8.18
2023-01-15T21:35:27.987Z,7.65
2023-01-15T21:40:29.675Z,8.75
2023-01-15T21:45:31.987Z,8.98
2023-01-15T21:50:33.862Z,8.80
2023-01-15T21:55:35.534Z,8.27
2023-01-15T22:00:37.884Z,8.00
2023-01-15T22:05:39.581Z,7.53
2023-01-15T22:10:41.208Z,6.85
2023-01-15T22:15:42.801Z,6.68
2023-01-15T22:20:45.428Z,5.43
2023-01-15T22:25:47.225Z,5.63
2023-01-15T22:30:48.974Z,5.90
2023-01-15T22:35:58.750Z,7.57
2023-01-15T22:41:00.392Z,6.93
2023-01-15T22:46:13.171Z,4.18
2023-01-15T22:51:14.883Z,3.35
2023-01-15T22:56:16.543Z,2.25
2023-01-15T23:01:18.631Z,2.20
2023-01-15T23:06:22.905Z,2.53
2023-01-15T23:11:25.070Z,2.45
2023-01-15T23:16:26.717Z,2.58
2023-01-15T23:21:28.631Z,2.22
2023-01-15T23:26:32.265Z,1.90
2023-01-15T23:31:34.180Z,1.58
2023-01-15T23:36:35.836Z,1.48
2023-01-15T23:41:56.181Z,1.63
2023-01-15T23:46:57.832Z,1.60
2023-01-15T23:52:00.164Z,1.73
2023-01-15T23:57:01.934Z,1.10
